Arabia, CA

11:40 PM PDT on October 22, 2014 (GMT -0700)
MesoWest Coachella CA US SGXWFO | Change Station
CLOSE
Current Station
Personal Weather Station
Location: Salton City, CA
Elevation: -100 ft
Nearby Weather Stations

Elev -100 ft 33.66 °N, 116.15 °W | Updated 45 minutes ago

Clear
Clear
73 °F
Feels Like 77 °F
N
4
Wind Variable Wind from SE
Gusts 0.0 mph

Today
High -- | Low -- °F
--% Chance of Precip.
Yesterday
High -- | Low -- °F
Precip. -- in
6:55 AM 6:02 PM
Waning Crescent, 0% visible
Pressure 29.90 in
Visibility 10.0 miles
Clouds Clear
Heat Index 77 °F
Dew Point 50 °F
Humidity 44%
Rainfall -999.00 in
Snow Depth Not available.
UV 0 out of 12
Pollen 3.90 out of 12
Ozone Good
Flu Activity Sporadic
METAR KTRM 230552Z AUTO 02004KT 10SM CLR 18/09 A2989 RMK AO2 SLP125 T01830089 10328 20183 53011 TSNO

More Conditions Fewer Conditions

Pressure 29.90 in
Visibility 10.0 miles
Clouds Clear
Heat Index 77 °F
Dew Point 50 °F
Humidity 44%
Rainfall -999.00 in
Snow Depth Not available.
UV 0 out of 12
Pollen 3.90 out of 12
Ozone Good
Flu Activity Sporadic
METAR KTRM 230552Z AUTO 02004KT 10SM CLR 18/09 A2989 RMK AO2 SLP125 T01830089 10328 20183 53011 TSNO

More Conditions Fewer Conditions

10-Day Weather Forecast

Almanac

Astronomy

Oct. 22, 2014 Rise Set
Actual Time 6:55 AM PDT 6:02 PM PDT
Civil Twilight 6:29 AM PDT 6:27 PM PDT
Nautical Twilight 6:00 AM PDT 6:56 PM PDT
Astronomical Twilight 5:31 AM PDT 7:25 PM PDT
Moon 5:44 AM PDT (10/22) 5:29 PM PDT (10/22)
Length of Visible Light 11h 58m
Length of Day
11h 07m
Tomorrow will be 1m 56s shorter.
Waning Crescent, 0% of the Moon is Illuminated
Oct 23
Waning Crescent
Oct 23
New
Oct 30
First Quarter
Nov 6
Full
Nov 14
Last Quarter

Community

WunderPhotos

Upload Photos

1,764,194 photos uploaded!

Nearby

Air Quality

  Air Quality AQ Index Pollutant
Yesterday Moderate
OZONE
Yesterday Good
PM10
Current Good
OZONE
Thursday Moderate
OZONE
Thursday Good
PM10
Thursday Good
CO
Thursday Good
NO2

Snow Depth

Station Depth Elevation
Virginia Lakes Ridge 0 in 9200 ft
Leavitt Meadows 0 in 7200 ft
Sonora Pass 0 in 8800 ft
Summit Meadow 1 in 9122 ft
Poison Flat 0 in 7900 ft

Earthquake Activity

City Distance Mag. Time & Date
Delta, Mexico 97 miles 2.5 8:53 PM PDT
2014-10-21
Alberto Oviedo Mota, Mexico 115 miles 2.7 4:13 PM PDT
2014-10-21
Alberto Oviedo Mota, Mexico 113 miles 3.3 3:57 PM PDT
2014-10-21
Minimum magnitude displayed is 2.5.

Coastal Water Temperatures

Place Temperature
No Stations Reporting

Nearby Weather Stations